sensor_id;sensor_type;location;lat;lon;timestamp;temperature;humidity
8463;DHT22;4268;52.506;13.462;2023-12-07T00:02:03;2.00;99.90
8463;DHT22;4268;52.506;13.462;2023-12-07T00:04:28;2.00;99.90
8463;DHT22;4268;52.506;13.462;2023-12-07T00:06:54;1.90;99.90
8463;DHT22;4268;52.506;13.462;2023-12-07T00:09:19;1.90;99.90
8463;DHT22;4268;52.506;13.462;2023-12-07T00:11:45;1.90;99.90
8463;DHT22;4268;52.506;13.462;2023-12-07T00:14:10;2.00;99.90
8463;DHT22;4268;52.506;13.462;2023-12-07T00:16:36;1.90;99.90
8463;DHT22;4268;52.506;13.462;2023-12-07T00:19:01;1.90;99.90
8463;DHT22;4268;52.506;13.462;2023-12-07T00:21:27;1.90;99.90
8463;DHT22;4268;52.506;13.462;2023-12-07T00:23:52;1.90;99.90
8463;DHT22;4268;52.506;13.462;2023-12-07T00:26:18;1.90;99.90
8463;DHT22;4268;52.506;13.462;2023-12-07T00:28:44;1.90;99.90
8463;DHT22;4268;52.506;13.462;2023-12-07T00:31:09;2.00;99.90
8463;DHT22;4268;52.506;13.462;2023-12-07T00:33:36;2.00;99.90
8463;DHT22;4268;52.506;13.462;2023-12-07T00:36:01;2.00;99.90
8463;DHT22;4268;52.506;13.462;2023-12-07T00:38:27;1.90;99.90
8463;DHT22;4268;52.506;13.462;2023-12-07T00:40:52;1.90;99.90
8463;DHT22;4268;52.506;13.462;2023-12-07T00:43:18;1.90;99.90
8463;DHT22;4268;52.506;13.462;2023-12-07T00:45:43;1.90;99.90
8463;DHT22;4268;52.506;13.462;2023-12-07T00:48:09;1.90;99.90
8463;DHT22;4268;52.506;13.462;2023-12-07T00:50:34;1.80;99.90
8463;DHT22;4268;52.506;13.462;2023-12-07T00:53:03;1.80;99.90
8463;DHT22;4268;52.506;13.462;2023-12-07T00:55:28;1.50;99.90
8463;DHT22;4268;52.506;13.462;2023-12-07T00:57:57;1.80;99.90
8463;DHT22;4268;52.506;13.462;2023-12-07T01:00:27;1.40;99.90
8463;DHT22;4268;52.506;13.462;2023-12-07T01:02:52;1.80;99.90
8463;DHT22;4268;52.506;13.462;2023-12-07T01:05:18;1.80;99.90
8463;DHT22;4268;52.506;13.462;2023-12-07T01:07:43;1.80;99.90
8463;DHT22;4268;52.506;13.462;2023-12-07T01:10:09;1.80;99.90
8463;DHT22;4268;52.506;13.462;2023-12-07T01:12:34;1.80;99.90
8463;DHT22;4268;52.506;13.462;2023-12-07T01:15:01;1.80;99.90
8463;DHT22;4268;52.506;13.462;2023-12-07T01:17:26;1.80;99.90
8463;DHT22;4268;52.506;13.462;2023-12-07T01:19:52;1.80;99.90
8463;DHT22;4268;52.506;13.462;2023-12-07T01:22:17;1.80;99.90
8463;DHT22;4268;52.506;13.462;2023-12-07T01:24:43;1.70;99.90
8463;DHT22;4268;52.506;13.462;2023-12-07T01:27:09;1.80;99.90
8463;DHT22;4268;52.506;13.462;2023-12-07T01:29:34;1.80;99.90
8463;DHT22;4268;52.506;13.462;2023-12-07T01:32:00;1.80;99.90
8463;DHT22;4268;52.506;13.462;2023-12-07T01:34:25;1.90;99.90
8463;DHT22;4268;52.506;13.462;2023-12-07T01:36:51;1.80;99.90
8463;DHT22;4268;52.506;13.462;2023-12-07T01:39:16;1.80;99.90
8463;DHT22;4268;52.506;13.462;2023-12-07T01:41:42;1.80;99.90
8463;DHT22;4268;52.506;13.462;2023-12-07T01:44:08;1.80;99.90
8463;DHT22;4268;52.506;13.462;2023-12-07T01:46:34;1.80;99.90
8463;DHT22;4268;52.506;13.462;2023-12-07T01:49:00;1.80;99.90
8463;DHT22;4268;52.506;13.462;2023-12-07T01:51:26;1.80;99.90
8463;DHT22;4268;52.506;13.462;2023-12-07T01:53:52;1.90;99.90
8463;DHT22;4268;52.506;13.462;2023-12-07T01:56:18;2.00;99.90
8463;DHT22;4268;52.506;13.462;2023-12-07T01:58:44;1.90;99.90
8463;DHT22;4268;52.506;13.462;2023-12-07T02:01:09;1.90;99.90
8463;DHT22;4268;52.506;13.462;2023-12-07T02:03:39;2.00;99.90
8463;DHT22;4268;52.506;13.462;2023-12-07T02:06:05;2.00;99.90
8463;DHT22;4268;52.506;13.462;2023-12-07T02:08:31;2.00;99.90
8463;DHT22;4268;52.506;13.462;2023-12-07T02:10:56;1.90;99.90
8463;DHT22;4268;52.506;13.462;2023-12-07T02:13:22;2.00;99.90
8463;DHT22;4268;52.506;13.462;2023-12-07T02:15:48;1.90;99.90
8463;DHT22;4268;52.506;13.462;2023-12-07T02:18:27;2.00;99.90
8463;DHT22;4268;52.506;13.462;2023-12-07T02:21:18;1.90;99.90
8463;DHT22;4268;52.506;13.462;2023-12-07T02:23:47;2.00;99.90
8463;DHT22;4268;52.506;13.462;2023-12-07T02:26:19;2.00;99.90
8463;DHT22;4268;52.506;13.462;2023-12-07T02:28:45;2.00;99.90
8463;DHT22;4268;52.506;13.462;2023-12-07T02:31:11;2.00;99.90
8463;DHT22;4268;52.506;13.462;2023-12-07T02:33:36;1.90;99.90
8463;DHT22;4268;52.506;13.462;2023-12-07T02:36:02;1.90;99.90
8463;DHT22;4268;52.506;13.462;2023-12-07T02:38:28;1.90;99.90
8463;DHT22;4268;52.506;13.462;2023-12-07T02:40:55;1.90;99.90
8463;DHT22;4268;52.506;13.462;2023-12-07T02:43:21;2.00;99.90
8463;DHT22;4268;52.506;13.462;2023-12-07T02:45:48;1.90;99.90
8463;DHT22;4268;52.506;13.462;2023-12-07T02:48:14;1.90;99.90
8463;DHT22;4268;52.506;13.462;2023-12-07T02:50:40;1.90;99.90
8463;DHT22;4268;52.506;13.462;2023-12-07T02:53:05;1.90;99.90
8463;DHT22;4268;52.506;13.462;2023-12-07T02:55:31;2.00;99.90
8463;DHT22;4268;52.506;13.462;2023-12-07T02:57:56;2.00;99.90
8463;DHT22;4268;52.506;13.462;2023-12-07T03:00:22;2.00;99.90
8463;DHT22;4268;52.506;13.462;2023-12-07T03:02:47;2.00;99.90
8463;DHT22;4268;52.506;13.462;2023-12-07T03:05:13;2.00;99.90
8463;DHT22;4268;52.506;13.462;2023-12-07T03:07:39;2.00;99.90
8463;DHT22;4268;52.506;13.462;2023-12-07T03:10:05;2.00;99.90
8463;DHT22;4268;52.506;13.462;2023-12-07T03:12:31;2.00;99.90
8463;DHT22;4268;52.506;13.462;2023-12-07T03:14:56;2.00;99.90
8463;DHT22;4268;52.506;13.462;2023-12-07T03:17:22;2.00;99.90
8463;DHT22;4268;52.506;13.462;2023-12-07T03:19:47;2.00;99.90
8463;DHT22;4268;52.506;13.462;2023-12-07T03:22:13;2.00;99.90
8463;DHT22;4268;52.506;13.462;2023-12-07T03:24:39;2.00;99.90
8463;DHT22;4268;52.506;13.462;2023-12-07T03:27:05;2.00;99.90
8463;DHT22;4268;52.506;13.462;2023-12-07T03:29:31;2.00;99.90
8463;DHT22;4268;52.506;13.462;2023-12-07T03:31:57;2.00;99.90
8463;DHT22;4268;52.506;13.462;2023-12-07T03:34:23;2.00;99.90
8463;DHT22;4268;52.506;13.462;2023-12-07T03:36:49;2.00;99.90
8463;DHT22;4268;52.506;13.462;2023-12-07T03:39:16;2.00;99.90
8463;DHT22;4268;52.506;13.462;2023-12-07T03:41:44;2.00;99.90
8463;DHT22;4268;52.506;13.462;2023-12-07T03:44:09;2.10;99.90
8463;DHT22;4268;52.506;13.462;2023-12-07T03:46:35;2.00;99.90
8463;DHT22;4268;52.506;13.462;2023-12-07T03:49:00;2.00;99.90
8463;DHT22;4268;52.506;13.462;2023-12-07T03:51:27;2.00;99.90
8463;DHT22;4268;52.506;13.462;2023-12-07T03:53:53;2.00;99.90
8463;DHT22;4268;52.506;13.462;2023-12-07T03:56:26;2.00;99.90
8463;DHT22;4268;52.506;13.462;2023-12-07T03:58:52;2.00;99.90
8463;DHT22;4268;52.506;13.462;2023-12-07T04:01:21;2.00;99.90
8463;DHT22;4268;52.506;13.462;2023-12-07T04:03:47;2.00;99.90
8463;DHT22;4268;52.506;13.462;2023-12-07T04:06:12;2.10;99.90
8463;DHT22;4268;52.506;13.462;2023-12-07T04:08:38;2.10;99.90
8463;DHT22;4268;52.506;13.462;2023-12-07T04:11:03;2.10;99.90
8463;DHT22;4268;52.506;13.462;2023-12-07T04:13:29;2.10;99.90
8463;DHT22;4268;52.506;13.462;2023-12-07T04:15:54;2.10;99.90
8463;DHT22;4268;52.506;13.462;2023-12-07T04:18:20;2.10;99.90
8463;DHT22;4268;52.506;13.462;2023-12-07T04:20:45;2.10;99.90
8463;DHT22;4268;52.506;13.462;2023-12-07T04:23:11;2.10;99.90
8463;DHT22;4268;52.506;13.462;2023-12-07T04:25:36;2.10;99.90
8463;DHT22;4268;52.506;13.462;2023-12-07T04:28:02;2.10;99.90
8463;DHT22;4268;52.506;13.462;2023-12-07T04:30:27;2.10;99.90
8463;DHT22;4268;52.506;13.462;2023-12-07T04:32:53;2.10;99.90
8463;DHT22;4268;52.506;13.462;2023-12-07T04:35:18;2.10;99.90
8463;DHT22;4268;52.506;13.462;2023-12-07T04:37:44;2.10;99.90
8463;DHT22;4268;52.506;13.462;2023-12-07T04:40:10;2.10;99.90
8463;DHT22;4268;52.506;13.462;2023-12-07T04:42:36;2.10;99.90
8463;DHT22;4268;52.506;13.462;2023-12-07T04:45:01;2.10;99.90
8463;DHT22;4268;52.506;13.462;2023-12-07T04:47:27;2.10;99.90
8463;DHT22;4268;52.506;13.462;2023-12-07T04:49:53;2.10;99.90
8463;DHT22;4268;52.506;13.462;2023-12-07T04:52:18;2.10;99.90
8463;DHT22;4268;52.506;13.462;2023-12-07T04:54:44;2.10;99.90
8463;DHT22;4268;52.506;13.462;2023-12-07T04:57:10;2.10;99.90
8463;DHT22;4268;52.506;13.462;2023-12-07T04:59:35;2.10;99.90
8463;DHT22;4268;52.506;13.462;2023-12-07T05:02:01;2.10;99.90
8463;DHT22;4268;52.506;13.462;2023-12-07T05:04:27;2.10;99.90
8463;DHT22;4268;52.506;13.462;2023-12-07T05:06:53;2.10;99.90
8463;DHT22;4268;52.506;13.462;2023-12-07T05:09:18;2.10;99.90
8463;DHT22;4268;52.506;13.462;2023-12-07T05:11:44;2.10;99.90
8463;DHT22;4268;52.506;13.462;2023-12-07T05:14:11;2.10;99.90
8463;DHT22;4268;52.506;13.462;2023-12-07T05:16:36;2.10;99.90
8463;DHT22;4268;52.506;13.462;2023-12-07T05:19:02;2.10;99.90
8463;DHT22;4268;52.506;13.462;2023-12-07T05:21:28;2.10;99.90
8463;DHT22;4268;52.506;13.462;2023-12-07T05:23:53;2.10;99.90
8463;DHT22;4268;52.506;13.462;2023-12-07T05:26:19;2.10;99.90
8463;DHT22;4268;52.506;13.462;2023-12-07T05:28:44;2.20;99.90
8463;DHT22;4268;52.506;13.462;2023-12-07T05:31:16;2.10;99.90
8463;DHT22;4268;52.506;13.462;2023-12-07T05:33:42;2.20;99.90
8463;DHT22;4268;52.506;13.462;2023-12-07T05:36:07;2.20;99.90
8463;DHT22;4268;52.506;13.462;2023-12-07T05:38:33;2.10;99.90
8463;DHT22;4268;52.506;13.462;2023-12-07T05:40:58;2.10;99.90
8463;DHT22;4268;52.506;13.462;2023-12-07T05:43:24;2.10;99.90
8463;DHT22;4268;52.506;13.462;2023-12-07T05:45:50;2.20;99.90
8463;DHT22;4268;52.506;13.462;2023-12-07T05:48:15;2.20;99.90
8463;DHT22;4268;52.506;13.462;2023-12-07T05:50:41;2.20;99.90
8463;DHT22;4268;52.506;13.462;2023-12-07T05:53:07;2.20;99.90
8463;DHT22;4268;52.506;13.462;2023-12-07T05:55:32;2.10;99.90
8463;DHT22;4268;52.506;13.462;2023-12-07T05:57:58;2.20;99.90
8463;DHT22;4268;52.506;13.462;2023-12-07T06:00:23;2.20;99.90
8463;DHT22;4268;52.506;13.462;2023-12-07T06:02:49;2.20;99.90
8463;DHT22;4268;52.506;13.462;2023-12-07T06:05:14;2.20;99.90
8463;DHT22;4268;52.506;13.462;2023-12-07T06:07:40;2.20;99.90
8463;DHT22;4268;52.506;13.462;2023-12-07T06:10:06;2.20;99.90
8463;DHT22;4268;52.506;13.462;2023-12-07T06:12:32;2.20;99.90
8463;DHT22;4268;52.506;13.462;2023-12-07T06:14:58;2.20;99.90
8463;DHT22;4268;52.506;13.462;2023-12-07T06:17:23;2.20;99.90
8463;DHT22;4268;52.506;13.462;2023-12-07T06:19:49;2.20;99.90
8463;DHT22;4268;52.506;13.462;2023-12-07T06:22:14;2.20;99.90
8463;DHT22;4268;52.506;13.462;2023-12-07T06:24:40;2.20;99.90
8463;DHT22;4268;52.506;13.462;2023-12-07T06:27:05;2.20;99.90
8463;DHT22;4268;52.506;13.462;2023-12-07T06:29:32;2.20;99.90
8463;DHT22;4268;52.506;13.462;2023-12-07T06:31:57;2.20;99.90
8463;DHT22;4268;52.506;13.462;2023-12-07T06:34:23;3.30;99.90
8463;DHT22;4268;52.506;13.462;2023-12-07T06:36:48;2.20;99.90
8463;DHT22;4268;52.506;13.462;2023-12-07T06:39:14;2.20;99.90
8463;DHT22;4268;52.506;13.462;2023-12-07T06:41:39;3.00;99.90
8463;DHT22;4268;52.506;13.462;2023-12-07T06:44:06;2.20;99.90
8463;DHT22;4268;52.506;13.462;2023-12-07T06:46:32;2.20;99.90
8463;DHT22;4268;52.506;13.462;2023-12-07T06:48:57;2.30;99.90
8463;DHT22;4268;52.506;13.462;2023-12-07T06:51:23;2.20;99.90
8463;DHT22;4268;52.506;13.462;2023-12-07T06:53:48;2.20;99.90
8463;DHT22;4268;52.506;13.462;2023-12-07T06:56:14;2.20;99.90
8463;DHT22;4268;52.506;13.462;2023-12-07T06:58:40;2.30;99.90
8463;DHT22;4268;52.506;13.462;2023-12-07T07:01:06;2.20;99.90
8463;DHT22;4268;52.506;13.462;2023-12-07T07:03:31;2.20;99.90
8463;DHT22;4268;52.506;13.462;2023-12-07T07:05:57;2.20;99.90
8463;DHT22;4268;52.506;13.462;2023-12-07T07:08:24;2.20;99.90
8463;DHT22;4268;52.506;13.462;2023-12-07T07:10:50;2.20;99.90
8463;DHT22;4268;52.506;13.462;2023-12-07T07:13:15;2.20;99.90
8463;DHT22;4268;52.506;13.462;2023-12-07T07:15:42;2.20;99.90
8463;DHT22;4268;52.506;13.462;2023-12-07T07:18:13;2.20;99.90
8463;DHT22;4268;52.506;13.462;2023-12-07T07:20:39;2.20;99.90
8463;DHT22;4268;52.506;13.462;2023-12-07T07:23:04;2.30;99.90
8463;DHT22;4268;52.506;13.462;2023-12-07T07:25:30;2.30;99.90
8463;DHT22;4268;52.506;13.462;2023-12-07T07:27:59;2.30;99.90
8463;DHT22;4268;52.506;13.462;2023-12-07T07:30:24;2.40;99.90
8463;DHT22;4268;52.506;13.462;2023-12-07T07:32:50;2.40;99.90
8463;DHT22;4268;52.506;13.462;2023-12-07T07:35:15;2.40;99.90
8463;DHT22;4268;52.506;13.462;2023-12-07T07:37:41;2.40;99.90
8463;DHT22;4268;52.506;13.462;2023-12-07T07:40:08;2.40;99.90
8463;DHT22;4268;52.506;13.462;2023-12-07T07:42:39;2.40;99.90
8463;DHT22;4268;52.506;13.462;2023-12-07T07:45:09;2.40;99.90
8463;DHT22;4268;52.506;13.462;2023-12-07T07:47:35;2.40;99.90
8463;DHT22;4268;52.506;13.462;2023-12-07T07:50:00;2.40;99.90
8463;DHT22;4268;52.506;13.462;2023-12-07T07:52:34;2.40;99.90
8463;DHT22;4268;52.506;13.462;2023-12-07T07:55:01;2.40;99.90
8463;DHT22;4268;52.506;13.462;2023-12-07T07:57:28;2.40;99.90
8463;DHT22;4268;52.506;13.462;2023-12-07T07:59:54;2.40;99.90
8463;DHT22;4268;52.506;13.462;2023-12-07T08:02:20;2.40;99.90
8463;DHT22;4268;52.506;13.462;2023-12-07T08:04:47;2.40;99.90
8463;DHT22;4268;52.506;13.462;2023-12-07T08:07:12;2.40;99.90
8463;DHT22;4268;52.506;13.462;2023-12-07T08:09:38;2.40;99.90
8463;DHT22;4268;52.506;13.462;2023-12-07T08:12:04;2.40;99.90
8463;DHT22;4268;52.506;13.462;2023-12-07T08:14:30;2.40;99.90
8463;DHT22;4268;52.506;13.462;2023-12-07T08:16:55;2.40;99.90
8463;DHT22;4268;52.506;13.462;2023-12-07T08:19:21;2.40;99.90
8463;DHT22;4268;52.506;13.462;2023-12-07T08:21:47;2.40;99.90
8463;DHT22;4268;52.506;13.462;2023-12-07T08:24:12;2.40;99.90
8463;DHT22;4268;52.506;13.462;2023-12-07T08:26:38;2.40;99.90
8463;DHT22;4268;52.506;13.462;2023-12-07T08:29:04;2.40;99.90
8463;DHT22;4268;52.506;13.462;2023-12-07T08:31:30;2.40;99.90
8463;DHT22;4268;52.506;13.462;2023-12-07T08:33:56;2.50;99.90
8463;DHT22;4268;52.506;13.462;2023-12-07T08:36:21;2.50;99.90
8463;DHT22;4268;52.506;13.462;2023-12-07T08:38:48;2.50;99.90
8463;DHT22;4268;52.506;13.462;2023-12-07T08:41:13;2.50;99.90
8463;DHT22;4268;52.506;13.462;2023-12-07T08:43:39;2.50;99.90
8463;DHT22;4268;52.506;13.462;2023-12-07T08:46:05;2.60;99.90
8463;DHT22;4268;52.506;13.462;2023-12-07T08:48:32;2.60;99.90
8463;DHT22;4268;52.506;13.462;2023-12-07T08:50:59;2.60;99.90
8463;DHT22;4268;52.506;13.462;2023-12-07T08:53:24;2.60;99.90
8463;DHT22;4268;52.506;13.462;2023-12-07T08:55:50;2.70;99.90
8463;DHT22;4268;52.506;13.462;2023-12-07T08:58:16;2.70;99.90
8463;DHT22;4268;52.506;13.462;2023-12-07T09:00:41;2.70;99.90
8463;DHT22;4268;52.506;13.462;2023-12-07T09:03:07;2.70;99.90
8463;DHT22;4268;52.506;13.462;2023-12-07T09:05:32;2.80;99.90
8463;DHT22;4268;52.506;13.462;2023-12-07T09:07:58;2.70;99.90
8463;DHT22;4268;52.506;13.462;2023-12-07T09:10:23;2.70;99.90
8463;DHT22;4268;52.506;13.462;2023-12-07T09:12:49;2.80;99.90
8463;DHT22;4268;52.506;13.462;2023-12-07T09:15:14;2.80;99.90
8463;DHT22;4268;52.506;13.462;2023-12-07T09:17:40;2.80;99.90
8463;DHT22;4268;52.506;13.462;2023-12-07T09:20:10;2.80;99.90
8463;DHT22;4268;52.506;13.462;2023-12-07T09:22:39;2.90;99.90
8463;DHT22;4268;52.506;13.462;2023-12-07T09:25:05;2.90;99.90
8463;DHT22;4268;52.506;13.462;2023-12-07T09:27:33;3.80;99.90
8463;DHT22;4268;52.506;13.462;2023-12-07T09:29:58;3.00;99.90
8463;DHT22;4268;52.506;13.462;2023-12-07T09:32:24;3.00;99.90
8463;DHT22;4268;52.506;13.462;2023-12-07T09:34:49;3.00;99.90
8463;DHT22;4268;52.506;13.462;2023-12-07T09:37:16;3.00;99.90
8463;DHT22;4268;52.506;13.462;2023-12-07T09:39:42;3.10;99.90
8463;DHT22;4268;52.506;13.462;2023-12-07T09:42:08;3.10;99.90
8463;DHT22;4268;52.506;13.462;2023-12-07T09:44:33;3.10;99.90
8463;DHT22;4268;52.506;13.462;2023-12-07T09:47:02;3.10;99.90
8463;DHT22;4268;52.506;13.462;2023-12-07T09:49:27;3.10;99.90
8463;DHT22;4268;52.506;13.462;2023-12-07T09:51:56;3.10;99.90
8463;DHT22;4268;52.506;13.462;2023-12-07T09:54:22;3.10;99.90
8463;DHT22;4268;52.506;13.462;2023-12-07T09:56:47;3.10;99.90
8463;DHT22;4268;52.506;13.462;2023-12-07T09:59:13;3.10;99.90
8463;DHT22;4268;52.506;13.462;2023-12-07T10:01:38;3.10;99.90
8463;DHT22;4268;52.506;13.462;2023-12-07T10:04:21;3.10;99.90
8463;DHT22;4268;52.506;13.462;2023-12-07T10:06:49;3.10;99.90
8463;DHT22;4268;52.506;13.462;2023-12-07T10:09:15;3.10;99.90
8463;DHT22;4268;52.506;13.462;2023-12-07T10:11:41;3.00;99.90
8463;DHT22;4268;52.506;13.462;2023-12-07T10:14:08;3.00;99.90
8463;DHT22;4268;52.506;13.462;2023-12-07T10:16:34;3.00;99.90
8463;DHT22;4268;52.506;13.462;2023-12-07T10:19:14;3.00;99.90
8463;DHT22;4268;52.506;13.462;2023-12-07T10:21:43;3.00;99.90
8463;DHT22;4268;52.506;13.462;2023-12-07T10:24:09;3.00;99.90
8463;DHT22;4268;52.506;13.462;2023-12-07T10:26:35;2.90;99.90
8463;DHT22;4268;52.506;13.462;2023-12-07T10:29:07;3.00;99.90
8463;DHT22;4268;52.506;13.462;2023-12-07T10:31:33;3.00;99.90
8463;DHT22;4268;52.506;13.462;2023-12-07T10:33:59;3.00;99.90
8463;DHT22;4268;52.506;13.462;2023-12-07T10:36:25;3.10;99.90
8463;DHT22;4268;52.506;13.462;2023-12-07T10:38:52;3.10;99.90
8463;DHT22;4268;52.506;13.462;2023-12-07T10:41:22;3.10;99.90
8463;DHT22;4268;52.506;13.462;2023-12-07T10:44:01;3.10;99.90
8463;DHT22;4268;52.506;13.462;2023-12-07T10:46:27;3.10;99.90
8463;DHT22;4268;52.506;13.462;2023-12-07T10:49:04;3.00;99.90
8463;DHT22;4268;52.506;13.462;2023-12-07T10:51:49;3.10;99.90
8463;DHT22;4268;52.506;13.462;2023-12-07T10:54:18;3.10;99.90
8463;DHT22;4268;52.506;13.462;2023-12-07T10:56:48;3.10;99.90
8463;DHT22;4268;52.506;13.462;2023-12-07T10:59:16;3.20;99.90
8463;DHT22;4268;52.506;13.462;2023-12-07T11:01:42;3.20;99.90
8463;DHT22;4268;52.506;13.462;2023-12-07T11:04:13;3.20;99.90
8463;DHT22;4268;52.506;13.462;2023-12-07T11:06:40;3.30;99.90
8463;DHT22;4268;52.506;13.462;2023-12-07T11:09:17;3.30;99.90
8463;DHT22;4268;52.506;13.462;2023-12-07T11:12:43;3.30;99.90
8463;DHT22;4268;52.506;13.462;2023-12-07T11:14:40;3.40;99.90
8463;DHT22;4268;52.506;13.462;2023-12-07T11:17:06;3.40;99.90
8463;DHT22;4268;52.506;13.462;2023-12-07T11:21:58;3.40;99.90
8463;DHT22;4268;52.506;13.462;2023-12-07T11:24:24;3.40;99.90
8463;DHT22;4268;52.506;13.462;2023-12-07T11:26:53;3.40;99.90
8463;DHT22;4268;52.506;13.462;2023-12-07T11:29:21;3.40;99.90
8463;DHT22;4268;52.506;13.462;2023-12-07T11:31:47;3.30;99.90
8463;DHT22;4268;52.506;13.462;2023-12-07T11:34:13;3.30;99.90
8463;DHT22;4268;52.506;13.462;2023-12-07T11:36:39;3.30;99.90
8463;DHT22;4268;52.506;13.462;2023-12-07T11:41:35;3.30;99.90
8463;DHT22;4268;52.506;13.462;2023-12-07T11:44:05;3.30;99.90
8463;DHT22;4268;52.506;13.462;2023-12-07T11:46:31;3.30;99.90
8463;DHT22;4268;52.506;13.462;2023-12-07T11:48:57;3.30;99.90
8463;DHT22;4268;52.506;13.462;2023-12-07T11:51:24;3.30;99.90
8463;DHT22;4268;52.506;13.462;2023-12-07T11:53:49;3.30;99.90
8463;DHT22;4268;52.506;13.462;2023-12-07T11:56:16;3.40;99.90
8463;DHT22;4268;52.506;13.462;2023-12-07T11:58:45;3.30;99.90
8463;DHT22;4268;52.506;13.462;2023-12-07T12:01:11;3.40;99.90
8463;DHT22;4268;52.506;13.462;2023-12-07T12:03:37;3.40;99.90
8463;DHT22;4268;52.506;13.462;2023-12-07T12:06:05;3.40;99.90
8463;DHT22;4268;52.506;13.462;2023-12-07T12:08:31;3.40;99.90
8463;DHT22;4268;52.506;13.462;2023-12-07T12:10:57;3.40;99.90
8463;DHT22;4268;52.506;13.462;2023-12-07T12:13:29;3.30;99.90
8463;DHT22;4268;52.506;13.462;2023-12-07T12:15:56;3.30;99.90
8463;DHT22;4268;52.506;13.462;2023-12-07T12:18:22;3.30;99.90
8463;DHT22;4268;52.506;13.462;2023-12-07T12:20:50;3.30;99.90
8463;DHT22;4268;52.506;13.462;2023-12-07T12:23:16;3.30;99.90
8463;DHT22;4268;52.506;13.462;2023-12-07T12:25:42;3.20;99.90
8463;DHT22;4268;52.506;13.462;2023-12-07T12:28:08;3.20;99.90
8463;DHT22;4268;52.506;13.462;2023-12-07T12:30:35;3.20;99.90
8463;DHT22;4268;52.506;13.462;2023-12-07T12:33:00;3.20;99.90
8463;DHT22;4268;52.506;13.462;2023-12-07T12:35:26;3.20;99.90
8463;DHT22;4268;52.506;13.462;2023-12-07T12:37:52;3.20;99.90
8463;DHT22;4268;52.506;13.462;2023-12-07T12:40:19;3.20;99.90
8463;DHT22;4268;52.506;13.462;2023-12-07T12:42:46;3.20;99.90
8463;DHT22;4268;52.506;13.462;2023-12-07T12:45:15;3.20;99.90
8463;DHT22;4268;52.506;13.462;2023-12-07T12:47:42;3.20;99.90
8463;DHT22;4268;52.506;13.462;2023-12-07T12:50:11;3.10;99.90
8463;DHT22;4268;52.506;13.462;2023-12-07T12:52:39;3.10;99.90
8463;DHT22;4268;52.506;13.462;2023-12-07T12:55:09;3.10;99.90
8463;DHT22;4268;52.506;13.462;2023-12-07T12:57:36;3.10;99.90
8463;DHT22;4268;52.506;13.462;2023-12-07T13:00:02;3.10;99.90
8463;DHT22;4268;52.506;13.462;2023-12-07T13:02:27;3.10;99.90
8463;DHT22;4268;52.506;13.462;2023-12-07T13:04:53;3.10;99.90
8463;DHT22;4268;52.506;13.462;2023-12-07T13:07:19;3.10;99.90
8463;DHT22;4268;52.506;13.462;2023-12-07T13:09:45;3.10;99.90
8463;DHT22;4268;52.506;13.462;2023-12-07T13:12:10;3.10;99.90
8463;DHT22;4268;52.506;13.462;2023-12-07T13:14:36;3.10;99.90
8463;DHT22;4268;52.506;13.462;2023-12-07T13:17:04;3.10;99.90
8463;DHT22;4268;52.506;13.462;2023-12-07T13:19:30;3.10;99.90
8463;DHT22;4268;52.506;13.462;2023-12-07T13:21:55;3.20;99.90
8463;DHT22;4268;52.506;13.462;2023-12-07T13:24:21;3.10;99.90
8463;DHT22;4268;52.506;13.462;2023-12-07T13:26:46;3.10;99.90
8463;DHT22;4268;52.506;13.462;2023-12-07T13:29:13;3.10;99.90
8463;DHT22;4268;52.506;13.462;2023-12-07T13:31:38;3.10;99.90
8463;DHT22;4268;52.506;13.462;2023-12-07T13:34:04;3.10;99.90
8463;DHT22;4268;52.506;13.462;2023-12-07T13:36:30;3.10;99.90
8463;DHT22;4268;52.506;13.462;2023-12-07T13:38:58;3.10;99.90
8463;DHT22;4268;52.506;13.462;2023-12-07T13:41:24;3.10;99.90
8463;DHT22;4268;52.506;13.462;2023-12-07T13:43:50;3.40;99.90
8463;DHT22;4268;52.506;13.462;2023-12-07T13:46:19;3.10;99.90
8463;DHT22;4268;52.506;13.462;2023-12-07T13:48:45;3.10;99.90
8463;DHT22;4268;52.506;13.462;2023-12-07T13:51:10;3.10;99.90
8463;DHT22;4268;52.506;13.462;2023-12-07T13:53:36;3.10;99.90
8463;DHT22;4268;52.506;13.462;2023-12-07T13:56:03;3.10;99.90
8463;DHT22;4268;52.506;13.462;2023-12-07T13:58:30;3.10;99.90
8463;DHT22;4268;52.506;13.462;2023-12-07T14:00:56;3.10;99.90
8463;DHT22;4268;52.506;13.462;2023-12-07T14:03:22;3.10;99.90
8463;DHT22;4268;52.506;13.462;2023-12-07T14:05:48;3.00;99.90
8463;DHT22;4268;52.506;13.462;2023-12-07T14:08:14;3.00;99.90
8463;DHT22;4268;52.506;13.462;2023-12-07T14:10:39;3.00;99.90
8463;DHT22;4268;52.506;13.462;2023-12-07T14:13:05;3.70;99.90
8463;DHT22;4268;52.506;13.462;2023-12-07T14:15:30;3.00;99.90
8463;DHT22;4268;52.506;13.462;2023-12-07T14:17:59;3.00;99.90
8463;DHT22;4268;52.506;13.462;2023-12-07T14:20:25;3.00;99.90
8463;DHT22;4268;52.506;13.462;2023-12-07T14:22:53;3.00;99.90
8463;DHT22;4268;52.506;13.462;2023-12-07T14:25:19;3.00;99.90
8463;DHT22;4268;52.506;13.462;2023-12-07T14:27:45;3.00;99.90
8463;DHT22;4268;52.506;13.462;2023-12-07T14:30:11;3.10;99.90
8463;DHT22;4268;52.506;13.462;2023-12-07T14:32:36;3.00;99.90
8463;DHT22;4268;52.506;13.462;2023-12-07T14:35:02;3.00;99.90
8463;DHT22;4268;52.506;13.462;2023-12-07T14:37:27;3.00;99.90
8463;DHT22;4268;52.506;13.462;2023-12-07T14:39:56;3.00;99.90
8463;DHT22;4268;52.506;13.462;2023-12-07T14:42:22;3.00;99.90
8463;DHT22;4268;52.506;13.462;2023-12-07T14:44:48;3.10;99.90
8463;DHT22;4268;52.506;13.462;2023-12-07T14:47:14;3.00;99.90
8463;DHT22;4268;52.506;13.462;2023-12-07T14:49:40;3.00;99.90
8463;DHT22;4268;52.506;13.462;2023-12-07T14:52:06;3.00;99.90
8463;DHT22;4268;52.506;13.462;2023-12-07T14:54:31;3.00;99.90
8463;DHT22;4268;52.506;13.462;2023-12-07T14:56:57;3.00;99.90
8463;DHT22;4268;52.506;13.462;2023-12-07T14:59:28;3.00;99.90
8463;DHT22;4268;52.506;13.462;2023-12-07T15:01:53;3.00;99.90
8463;DHT22;4268;52.506;13.462;2023-12-07T15:04:19;3.00;99.90
8463;DHT22;4268;52.506;13.462;2023-12-07T15:06:45;3.00;99.90
8463;DHT22;4268;52.506;13.462;2023-12-07T15:09:10;3.00;99.90
8463;DHT22;4268;52.506;13.462;2023-12-07T15:11:36;3.00;99.90
8463;DHT22;4268;52.506;13.462;2023-12-07T15:14:02;3.00;99.90
8463;DHT22;4268;52.506;13.462;2023-12-07T15:16:28;3.00;99.90
8463;DHT22;4268;52.506;13.462;2023-12-07T15:18:54;3.00;99.90
8463;DHT22;4268;52.506;13.462;2023-12-07T15:21:19;3.00;99.90
8463;DHT22;4268;52.506;13.462;2023-12-07T15:23:45;3.00;99.90
8463;DHT22;4268;52.506;13.462;2023-12-07T15:26:11;3.00;99.90
8463;DHT22;4268;52.506;13.462;2023-12-07T15:28:38;3.00;99.90
8463;DHT22;4268;52.506;13.462;2023-12-07T15:31:04;3.00;99.90
8463;DHT22;4268;52.506;13.462;2023-12-07T15:33:31;3.00;99.90
8463;DHT22;4268;52.506;13.462;2023-12-07T15:35:57;3.00;99.90
8463;DHT22;4268;52.506;13.462;2023-12-07T15:38:23;2.90;99.90
8463;DHT22;4268;52.506;13.462;2023-12-07T15:40:48;2.90;99.90
8463;DHT22;4268;52.506;13.462;2023-12-07T15:43:14;2.90;99.90
8463;DHT22;4268;52.506;13.462;2023-12-07T15:45:40;2.90;99.90
8463;DHT22;4268;52.506;13.462;2023-12-07T15:48:05;2.90;99.90
8463;DHT22;4268;52.506;13.462;2023-12-07T15:53:06;2.90;99.90
8463;DHT22;4268;52.506;13.462;2023-12-07T15:55:32;2.90;99.90
8463;DHT22;4268;52.506;13.462;2023-12-07T15:57:58;3.00;99.90
8463;DHT22;4268;52.506;13.462;2023-12-07T16:00:23;2.90;99.90
8463;DHT22;4268;52.506;13.462;2023-12-07T16:02:49;2.90;99.90
8463;DHT22;4268;52.506;13.462;2023-12-07T16:05:15;2.90;99.90